Time;durP1;ratioP1;P1;durP2;ratioP2;P2;SDS_P1;SDS_P2;PMS_P1;PMS_P2;Temp;Humidity;BMP_temperature;BMP_pressure;BME280_temperature;BME280_humidity;BME280_pressure;Samples;Min_cycle;Max_cycle;Signal;HPM_P1;HPM_P2
2022/05/28 00:00:18;;;;;;;10.75;5.05;;;17.20;99.90;;;;;;5074195;28;20197;-80
2022/05/28 00:02:50;;;;;;;7.78;4.53;;;17.30;99.90;;;;;;5073760;28;20207;-79
2022/05/28 00:05:24;;;;;;;6.40;4.07;;;17.40;99.90;;;;;;5071698;28;20196;-82
2022/05/28 00:07:54;;;;;;;6.43;4.22;;;17.50;99.90;;;;;;5073700;28;20247;-81
2022/05/28 00:10:25;;;;;;;6.82;4.65;;;17.60;99.90;;;;;;5074533;28;20219;-79
2022/05/28 00:12:58;;;;;;;4.88;4.20;;;17.70;99.90;;;;;;5072910;28;20656;-80
2022/05/28 00:15:29;;;;;;;7.20;4.03;;;17.80;99.90;;;;;;5073016;28;20655;-80
2022/05/28 00:17:59;;;;;;;6.85;5.20;;;17.90;99.90;;;;;;5070752;28;20282;-80
2022/05/28 00:20:32;;;;;;;4.40;3.53;;;18.00;99.90;;;;;;5069492;28;20308;-81
2022/05/28 00:23:04;;;;;;;5.85;3.70;;;18.00;99.90;;;;;;5072767;28;20212;-86
2022/05/28 00:25:34;;;;;;;5.57;3.63;;;18.00;99.90;;;;;;5072477;28;20257;-80
2022/05/28 00:28:05;;;;;;;4.57;2.80;;;18.10;99.90;;;;;;5066316;28;20189;-81
2022/05/28 00:30:36;;;;;;;4.70;3.00;;;18.30;99.90;;;;;;5072397;28;20213;-80
2022/05/28 00:33:06;;;;;;;5.32;2.97;;;18.40;99.90;;;;;;5072032;28;20196;-79
2022/05/28 00:35:39;;;;;;;3.70;2.65;;;18.40;99.90;;;;;;5071145;28;20196;-81
2022/05/28 00:38:10;;;;;;;2.58;2.15;;;18.50;99.90;;;;;;5073414;28;20193;-83
2022/05/28 00:40:40;;;;;;;3.70;2.00;;;18.50;99.90;;;;;;5071199;28;20250;-82
2022/05/28 00:43:12;;;;;;;3.83;2.20;;;18.60;99.90;;;;;;5073243;28;20204;-79
2022/05/28 00:45:44;;;;;;;3.25;2.30;;;18.70;99.90;;;;;;5075449;28;20191;-80
2022/05/28 00:48:17;;;;;;;3.50;2.20;;;18.70;99.90;;;;;;5073071;28;20189;-79
2022/05/28 00:50:50;;;;;;;3.78;2.25;;;18.80;99.90;;;;;;5072508;28;20221;-80
2022/05/28 00:53:21;;;;;;;2.97;2.30;;;18.90;99.90;;;;;;5073637;28;20189;-80
2022/05/28 00:55:52;;;;;;;3.63;2.15;;;18.90;99.90;;;;;;5075348;28;20254;-80
2022/05/28 00:58:23;;;;;;;2.63;2.10;;;19.10;99.90;;;;;;5072256;28;20223;-80
2022/05/28 01:00:53;;;;;;;3.20;1.90;;;19.10;99.90;;;;;;5070242;28;20208;-80
2022/05/28 01:03:35;;;;;;;2.85;1.50;;;19.20;99.90;;;;;;5072357;28;20204;-80
2022/05/28 01:06:14;;;;;;;3.25;1.50;;;19.30;99.90;;;;;;5071863;28;20208;-78
2022/05/28 01:08:47;;;;;;;2.22;1.50;;;19.40;99.90;;;;;;5068880;28;20189;-80
2022/05/28 01:11:25;;;;;;;3.47;1.77;;;19.40;99.90;;;;;;5071611;28;20209;-79
2022/05/28 01:14:05;;;;;;;2.17;1.80;;;19.50;99.90;;;;;;5066178;28;20254;-81
2022/05/28 01:16:38;;;;;;;2.30;1.63;;;19.60;99.90;;;;;;5065818;28;20200;-80
2022/05/28 01:19:21;;;;;;;2.70;1.80;;;19.60;99.90;;;;;;5069993;28;20237;-80
2022/05/28 01:22:11;;;;;;;2.05;1.70;;;19.70;99.90;;;;;;5064631;28;20556;-80
2022/05/28 01:24:50;;;;;;;3.75;1.75;;;19.60;99.90;;;;;;5065531;28;20196;-80
2022/05/28 01:27:30;;;;;;;2.70;1.80;;;19.70;99.90;;;;;;5072812;28;20667;-80
2022/05/28 01:30:06;;;;;;;3.67;1.67;;;19.70;99.90;;;;;;5072529;28;20213;-79
2022/05/28 01:32:38;;;;;;;3.42;2.65;;;19.80;99.90;;;;;;5074097;28;20250;-80
2022/05/28 01:35:15;;;;;;;1.90;1.48;;;19.80;99.90;;;;;;5069653;28;20266;-79
2022/05/28 01:37:48;;;;;;;1.50;1.40;;;19.80;99.90;;;;;;5068056;28;20672;-79
2022/05/28 01:40:20;;;;;;;1.55;1.45;;;19.80;99.90;;;;;;5067831;28;20204;-79
2022/05/28 01:42:55;;;;;;;1.95;1.60;;;19.80;99.90;;;;;;5067945;28;20197;-80
2022/05/28 01:45:31;;;;;;;2.72;1.60;;;19.80;99.90;;;;;;5067002;28;20208;-80
2022/05/28 01:48:06;;;;;;;1.52;1.42;;;19.80;99.90;;;;;;5068785;28;20192;-80
2022/05/28 01:50:40;;;;;;;2.72;1.40;;;19.70;99.90;;;;;;5071915;28;20208;-80
2022/05/28 01:54:06;;;;;;;3.92;1.45;;;19.80;99.90;;;;;;5067362;28;20196;-80
2022/05/28 01:56:06;;;;;;;2.22;1.60;;;19.80;99.90;;;;;;5071913;28;20254;-79
2022/05/28 01:58:40;;;;;;;1.70;1.48;;;19.80;99.90;;;;;;5069602;28;20193;-80
2022/05/28 02:01:11;;;;;;;3.03;1.92;;;19.80;99.90;;;;;;5069450;28;20208;-80
2022/05/28 02:03:46;;;;;;;4.30;2.30;;;19.80;99.90;;;;;;5070442;28;20197;-80
2022/05/28 02:06:18;;;;;;;2.33;1.70;;;19.80;99.90;;;;;;5052540;28;20203;-80
2022/05/28 02:08:52;;;;;;;3.25;1.70;;;19.80;99.90;;;;;;5066448;28;20193;-81
2022/05/28 02:11:28;;;;;;;1.65;1.50;;;19.80;99.90;;;;;;5064885;28;20227;-80
2022/05/28 02:14:16;;;;;;;3.42;1.85;;;19.80;99.90;;;;;;5069191;28;20280;-79
2022/05/28 02:16:54;;;;;;;2.28;1.70;;;19.80;99.90;;;;;;5062379;28;20607;-80
2022/05/28 02:19:33;;;;;;;1.52;1.42;;;19.70;99.90;;;;;;5068993;28;20238;-79
2022/05/28 02:22:12;;;;;;;1.60;1.45;;;19.70;99.90;;;;;;5069680;28;20189;-79
2022/05/28 02:24:47;;;;;;;3.38;1.95;;;19.60;99.90;;;;;;5069136;28;20667;-80
2022/05/28 02:27:20;;;;;;;3.90;1.70;;;19.60;99.90;;;;;;5067165;28;20679;-80
2022/05/28 02:29:54;;;;;;;2.22;1.55;;;19.60;99.90;;;;;;5070183;28;20197;-79
2022/05/28 02:32:27;;;;;;;1.70;1.52;;;19.60;99.90;;;;;;5067054;28;20588;-80
2022/05/28 02:34:58;;;;;;;2.08;1.50;;;19.60;99.90;;;;;;5062894;28;20193;-79
2022/05/28 02:37:30;;;;;;;2.40;1.83;;;19.60;99.90;;;;;;5071366;28;20193;-79
2022/05/28 02:40:01;;;;;;;2.40;1.50;;;19.70;99.90;;;;;;5070170;28;20200;-80
2022/05/28 02:42:32;;;;;;;1.52;1.13;;;19.70;99.90;;;;;;5071898;28;20193;-80
2022/05/28 02:45:05;;;;;;;1.20;1.10;;;19.70;99.90;;;;;;5070990;28;20232;-80
2022/05/28 02:47:35;;;;;;;1.30;1.20;;;19.80;99.90;;;;;;5071201;28;20182;-78
2022/05/28 02:50:06;;;;;;;2.25;1.20;;;19.90;99.90;;;;;;5070620;28;20243;-81
2022/05/28 02:52:37;;;;;;;3.88;1.20;;;19.90;99.90;;;;;;5072266;28;20197;-79
2022/05/28 02:55:08;;;;;;;1.20;1.00;;;20.00;99.90;;;;;;5070517;28;20185;-79
2022/05/28 02:57:39;;;;;;;1.05;0.90;;;20.00;99.90;;;;;;5067335;28;20347;-80
2022/05/28 03:00:14;;;;;;;1.75;1.00;;;20.00;99.90;;;;;;5068967;28;20197;-80
2022/05/28 03:02:45;;;;;;;0.98;0.90;;;20.00;99.90;;;;;;5070376;28;20656;-79
2022/05/28 03:05:16;;;;;;;1.08;1.02;;;20.10;99.90;;;;;;5073243;28;20651;-80
2022/05/28 03:07:47;;;;;;;1.17;0.90;;;20.20;99.90;;;;;;5074585;28;20272;-79
2022/05/28 03:10:18;;;;;;;2.60;0.80;;;20.40;99.90;;;;;;5077318;28;20212;-79
2022/05/28 03:12:49;;;;;;;0.80;0.80;;;20.50;99.90;;;;;;5074390;28;20205;-78
2022/05/28 03:15:21;;;;;;;1.58;1.20;;;20.60;99.90;;;;;;5070298;28;20189;-79
2022/05/28 03:17:52;;;;;;;1.10;0.90;;;20.60;99.90;;;;;;5071153;28;20228;-79
2022/05/28 03:20:22;;;;;;;1.40;1.20;;;20.50;99.90;;;;;;5073796;28;20197;-78
2022/05/28 03:22:53;;;;;;;1.58;0.90;;;20.40;99.90;;;;;;5073532;28;20221;-79
2022/05/28 03:25:24;;;;;;;1.77;1.00;;;20.30;99.90;;;;;;5072762;28;20192;-80
2022/05/28 03:27:55;;;;;;;1.20;1.10;;;20.10;99.90;;;;;;5072712;28;21135;-80
2022/05/28 03:30:27;;;;;;;1.33;0.98;;;20.10;99.90;;;;;;5074932;28;20224;-79
2022/05/28 03:32:58;;;;;;;1.75;0.98;;;20.00;99.90;;;;;;5073926;28;20189;-79
2022/05/28 03:35:28;;;;;;;1.13;0.80;;;20.10;99.90;;;;;;5074407;28;20189;-79
2022/05/28 03:37:59;;;;;;;9.93;1.27;;;20.10;99.90;;;;;;5074281;28;20242;-79
2022/05/28 03:40:30;;;;;;;5.85;4.50;;;20.20;99.90;;;;;;5074462;28;20238;-80
2022/05/28 03:43:01;;;;;;;145.93;67.97;;;20.20;99.90;;;;;;5074350;28;20197;-80
2022/05/28 03:45:33;;;;;;;33.35;18.75;;;20.30;99.90;;;;;;5073716;28;20251;-79
2022/05/28 03:48:13;;;;;;;44.72;22.65;;;20.40;99.90;;;;;;5074362;28;20189;-80
2022/05/28 03:50:44;;;;;;;22.42;13.02;;;20.50;99.90;;;;;;5074140;28;20330;-80
2022/05/28 03:53:15;;;;;;;11.98;6.68;;;20.50;99.90;;;;;;5073092;28;20247;-80
2022/05/28 03:55:46;;;;;;;3.15;2.03;;;20.40;99.90;;;;;;5073775;28;20208;-80
2022/05/28 03:58:17;;;;;;;4.80;2.40;;;20.50;99.90;;;;;;5071592;28;20571;-79
2022/05/28 04:00:49;;;;;;;2.53;1.35;;;20.40;99.90;;;;;;5073892;28;20197;-80
2022/05/28 04:03:20;;;;;;;1.10;0.90;;;20.40;99.90;;;;;;5070143;28;20196;-80
2022/05/28 04:05:50;;;;;;;0.80;0.65;;;20.20;99.90;;;;;;5073721;28;20193;-80
2022/05/28 04:08:21;;;;;;;1.67;0.60;;;20.20;99.90;;;;;;5074121;28;20193;-80
2022/05/28 04:10:52;;;;;;;0.70;0.50;;;20.10;99.90;;;;;;5073755;28;20213;-79
2022/05/28 04:13:22;;;;;;;0.45;0.45;;;20.10;99.90;;;;;;5070454;28;20185;-79
2022/05/28 04:15:55;;;;;;;1.00;0.32;;;20.00;99.90;;;;;;5070988;28;20225;-78
2022/05/28 04:18:26;;;;;;;0.40;0.40;;;20.00;99.90;;;;;;5070044;28;20553;-79
2022/05/28 04:20:56;;;;;;;1.65;0.60;;;20.00;99.90;;;;;;5072638;28;20193;-78
2022/05/28 04:23:27;;;;;;;0.35;0.30;;;19.90;99.90;;;;;;5072752;28;20221;-79
2022/05/28 04:25:57;;;;;;;0.52;0.40;;;19.90;99.90;;;;;;5074010;28;20559;-79
2022/05/28 04:28:28;;;;;;;1.95;0.20;;;19.90;99.90;;;;;;5073592;28;20189;-79
2022/05/28 04:31:01;;;;;;;2.08;0.30;;;19.90;99.90;;;;;;5073370;28;20259;-79
2022/05/28 04:33:31;;;;;;;0.52;0.30;;;19.90;99.90;;;;;;5073409;28;20193;-79
2022/05/28 04:36:02;;;;;;;1.13;0.50;;;19.90;99.90;;;;;;5072972;28;20655;-79
2022/05/28 04:38:32;;;;;;;0.32;0.32;;;19.90;99.90;;;;;;5073705;28;20193;-78
2022/05/28 04:41:03;;;;;;;0.40;0.30;;;20.00;99.90;;;;;;5072823;28;20192;-79
2022/05/28 04:43:34;;;;;;;0.30;0.30;;;20.20;99.90;;;;;;5073364;28;20688;-78
2022/05/28 04:46:06;;;;;;;0.38;0.30;;;20.30;99.90;;;;;;5073169;28;20185;-79
2022/05/28 04:48:38;;;;;;;0.20;0.20;;;20.30;99.90;;;;;;5073335;28;20185;-79
2022/05/28 04:51:09;;;;;;;2.88;1.08;;;20.30;99.90;;;;;;5072926;28;20208;-80
2022/05/28 04:53:41;;;;;;;2.10;0.40;;;20.20;99.90;;;;;;5072940;28;20189;-79
2022/05/28 04:56:11;;;;;;;0.85;0.30;;;20.10;99.90;;;;;;5072086;28;20196;-79
2022/05/28 04:58:42;;;;;;;1.00;0.35;;;20.00;99.90;;;;;;5073747;28;21449;-78
2022/05/28 05:01:17;;;;;;;1.30;0.93;;;19.90;99.90;;;;;;5072338;28;20583;-80
2022/05/28 05:03:48;;;;;;;1.42;0.80;;;19.80;99.90;;;;;;5070489;28;20567;-79
2022/05/28 05:06:19;;;;;;;1.60;0.30;;;19.70;99.90;;;;;;5073365;28;20184;-78
2022/05/28 05:08:49;;;;;;;0.63;0.40;;;19.70;99.90;;;;;;5073242;28;20181;-79
2022/05/28 05:11:20;;;;;;;0.35;0.35;;;19.60;99.90;;;;;;5071252;28;20205;-79
2022/05/28 05:13:51;;;;;;;0.90;0.32;;;19.70;99.90;;;;;;5072728;28;20239;-78
2022/05/28 05:16:23;;;;;;;0.30;0.30;;;19.60;99.90;;;;;;5068331;28;20239;-79
2022/05/28 05:18:54;;;;;;;0.43;0.30;;;19.60;99.90;;;;;;5072313;28;20224;-79
2022/05/28 05:21:24;;;;;;;0.47;0.40;;;19.60;99.90;;;;;;5069548;28;20192;-79
2022/05/28 05:23:55;;;;;;;0.50;0.28;;;19.60;99.90;;;;;;5071354;28;20278;-78
2022/05/28 05:26:26;;;;;;;0.45;0.40;;;19.60;99.90;;;;;;5072190;28;20238;-78
2022/05/28 05:28:56;;;;;;;0.43;0.40;;;19.60;99.90;;;;;;5072395;28;20682;-78
2022/05/28 05:31:29;;;;;;;0.43;0.30;;;19.70;99.90;;;;;;5072794;28;20212;-77
2022/05/28 05:33:59;;;;;;;1.70;0.30;;;19.70;99.90;;;;;;5069363;28;20239;-78
2022/05/28 05:36:30;;;;;;;1.05;0.52;;;19.70;99.90;;;;;;5072603;28;20185;-78
2022/05/28 05:39:00;;;;;;;0.98;0.45;;;19.70;99.90;;;;;;5072215;28;20216;-78
2022/05/28 05:41:31;;;;;;;0.38;0.30;;;19.80;99.90;;;;;;5071376;28;20192;-78
2022/05/28 05:44:02;;;;;;;0.70;0.40;;;20.00;99.90;;;;;;5068256;28;20208;-78
2022/05/28 05:46:35;;;;;;;1.10;0.55;;;20.10;99.90;;;;;;5071190;28;20185;-78
2022/05/28 05:49:06;;;;;;;1.17;0.52;;;20.10;99.90;;;;;;5070581;28;20230;-78
2022/05/28 05:51:46;;;;;;;0.55;0.30;;;20.10;99.90;;;;;;5071301;28;20208;-79
2022/05/28 05:54:19;;;;;;;0.35;0.30;;;20.10;99.90;;;;;;5070277;28;20254;-79
2022/05/28 05:56:50;;;;;;;0.63;0.40;;;20.00;99.90;;;;;;5069392;28;20636;-78
2022/05/28 05:59:21;;;;;;;2.08;0.63;;;19.90;99.90;;;;;;5071782;28;20185;-79
2022/05/28 06:01:54;;;;;;;0.68;0.38;;;19.90;99.90;;;;;;5067192;28;20200;-78
2022/05/28 06:04:24;;;;;;;1.42;0.50;;;19.80;99.90;;;;;;5071477;28;20684;-78
2022/05/28 06:06:55;;;;;;;0.47;0.47;;;19.70;99.90;;;;;;5071135;28;20181;-79
2022/05/28 06:09:26;;;;;;;1.15;0.40;;;19.60;99.90;;;;;;5071587;28;20181;-79
2022/05/28 06:12:04;;;;;;;1.23;0.65;;;19.50;99.90;;;;;;5071077;28;20227;-79
2022/05/28 06:14:35;;;;;;;1.13;0.70;;;19.40;99.90;;;;;;5069881;28;20213;-79
2022/05/28 06:17:08;;;;;;;0.95;0.65;;;19.20;99.90;;;;;;5071212;28;20197;-78
2022/05/28 06:19:39;;;;;;;3.13;1.05;;;19.30;99.90;;;;;;5072024;28;20238;-78
2022/05/28 06:22:09;;;;;;;1.35;0.90;;;19.20;99.90;;;;;;5066156;28;20282;-79
2022/05/28 06:24:40;;;;;;;1.60;0.80;;;19.10;99.90;;;;;;5070776;28;20258;-79
2022/05/28 06:27:11;;;;;;;2.90;0.65;;;19.10;99.90;;;;;;5070140;28;20185;-79
2022/05/28 06:29:41;;;;;;;0.93;0.50;;;19.00;99.90;;;;;;5070016;28;20193;-80
2022/05/28 06:32:14;;;;;;;1.95;0.70;;;18.90;99.90;;;;;;5069916;28;20334;-79
2022/05/28 06:34:45;;;;;;;1.20;0.65;;;18.80;99.90;;;;;;5069601;28;20207;-78
2022/05/28 06:37:16;;;;;;;1.30;0.80;;;18.70;99.90;;;;;;5069602;28;20204;-79
2022/05/28 06:39:46;;;;;;;1.65;0.85;;;18.70;99.90;;;;;;5074188;28;20628;-79
2022/05/28 06:42:17;;;;;;;1.65;0.80;;;18.60;99.90;;;;;;5074160;28;20185;-78
2022/05/28 06:44:48;;;;;;;1.30;0.80;;;18.60;99.90;;;;;;5068182;28;20588;-78
2022/05/28 06:47:21;;;;;;;1.35;0.65;;;18.50;99.90;;;;;;5072275;28;20189;-78
2022/05/28 06:51:01;;;;;;;1.33;0.70;;;18.50;99.90;;;;;;5075174;28;20707;-78
2022/05/28 06:52:42;;;;;;;0.70;0.60;;;18.50;99.90;;;;;;5075983;28;20228;-78
2022/05/28 06:55:13;;;;;;;0.85;0.70;;;18.50;99.90;;;;;;5076552;28;20694;-78
2022/05/28 06:57:43;;;;;;;2.20;0.85;;;18.50;99.90;;;;;;5076043;28;20242;-78
2022/05/28 07:00:14;;;;;;;0.98;0.50;;;18.40;99.90;;;;;;5071941;28;20705;-78
2022/05/28 07:02:47;;;;;;;1.17;0.70;;;18.40;99.90;;;;;;5075906;28;20246;-78
2022/05/28 07:05:18;;;;;;;1.27;0.80;;;18.40;99.90;;;;;;5071198;28;20189;-78
2022/05/28 07:07:49;;;;;;;1.08;0.60;;;18.40;99.90;;;;;;5074655;28;20189;-78
2022/05/28 07:10:20;;;;;;;0.40;0.40;;;18.30;99.90;;;;;;5075756;28;20247;-79
2022/05/28 07:12:50;;;;;;;0.73;0.68;;;18.30;99.90;;;;;;5075774;28;20710;-79
2022/05/28 07:15:21;;;;;;;1.30;0.82;;;18.20;99.90;;;;;;5076031;28;20644;-78
2022/05/28 07:17:53;;;;;;;3.17;0.70;;;18.20;99.90;;;;;;5071372;28;20237;-79
2022/05/28 07:20:24;;;;;;;1.15;0.90;;;18.10;99.90;;;;;;5074646;28;20201;-78
2022/05/28 07:22:55;;;;;;;1.45;1.05;;;18.00;99.90;;;;;;5074830;28;20224;-78
2022/05/28 07:25:26;;;;;;;2.70;1.40;;;18.00;99.90;;;;;;5075742;28;20197;-79
2022/05/28 07:27:56;;;;;;;1.95;1.20;;;17.90;99.90;;;;;;5075436;28;20276;-78
2022/05/28 07:30:27;;;;;;;2.67;1.00;;;17.80;99.90;;;;;;5075438;28;20185;-78
2022/05/28 07:33:00;;;;;;;2.25;1.40;;;17.70;99.90;;;;;;5074561;28;20213;-79
2022/05/28 07:35:30;;;;;;;3.08;1.33;;;17.60;99.90;;;;;;5075110;28;20653;-79
2022/05/28 07:38:03;;;;;;;2.90;1.60;;;17.50;99.90;;;;;;5074811;28;20193;-78
2022/05/28 07:40:34;;;;;;;6.35;2.10;;;17.50;99.90;;;;;;5073904;28;20238;-79
2022/05/28 07:43:04;;;;;;;3.10;1.70;;;17.50;99.90;;;;;;5075045;28;20193;-78
2022/05/28 07:45:40;;;;;;;2.75;1.77;;;17.50;99.90;;;;;;5074949;28;20205;-79
2022/05/28 07:48:14;;;;;;;3.63;2.10;;;17.40;99.90;;;;;;5074394;28;20231;-79
2022/05/28 07:50:47;;;;;;;3.78;2.13;;;17.40;99.90;;;;;;5075109;28;20624;-78
2022/05/28 07:53:19;;;;;;;4.85;2.13;;;17.40;99.90;;;;;;5069481;28;20213;-78
2022/05/28 07:55:49;;;;;;;5.40;1.90;;;17.30;99.90;;;;;;5063485;28;20185;-78
2022/05/28 07:58:20;;;;;;;3.45;2.05;;;17.30;99.90;;;;;;5073960;28;20197;-78
2022/05/28 08:00:52;;;;;;;3.92;2.30;;;17.20;99.90;;;;;;5073396;28;20614;-79
2022/05/28 08:03:25;;;;;;;16.45;12.35;;;17.20;99.90;;;;;;5074350;28;20204;-79
2022/05/28 08:05:56;;;;;;;133.50;76.30;;;17.20;99.90;;;;;;5077745;28;20204;-80
2022/05/28 08:08:28;;;;;;;17.08;10.88;;;17.20;99.90;;;;;;5071671;28;20314;-78
2022/05/28 08:10:59;;;;;;;48.22;29.27;;;17.20;99.90;;;;;;5073612;28;20725;-79
2022/05/28 08:13:30;;;;;;;40.05;24.70;;;17.20;99.90;;;;;;5071624;28;20223;-79
2022/05/28 08:16:02;;;;;;;78.80;44.90;;;17.20;99.90;;;;;;5073189;28;20197;-79
2022/05/28 08:18:36;;;;;;;23.45;14.02;;;17.20;99.90;;;;;;5072885;28;20228;-80
2022/05/28 08:23:54;;;;;;;15.18;9.10;;;17.20;99.90;;;;;;5048763;28;20223;-79
2022/05/28 08:26:25;;;;;;;14.48;8.32;;;17.20;99.90;;;;;;5070098;28;20196;-79
2022/05/28 08:28:57;;;;;;;8.02;4.90;;;17.20;99.90;;;;;;5061375;28;20206;-78
2022/05/28 08:31:27;;;;;;;8.80;4.63;;;17.20;99.90;;;;;;5070761;28;20201;-78
2022/05/28 08:34:00;;;;;;;6.75;4.10;;;17.20;99.90;;;;;;5072142;28;20221;-78
2022/05/28 08:36:31;;;;;;;8.68;4.00;;;17.20;99.90;;;;;;5073779;28;20192;-79
2022/05/28 08:39:01;;;;;;;6.80;3.65;;;17.10;99.90;;;;;;5074451;28;20283;-78
2022/05/28 08:41:40;;;;;;;4.65;2.80;;;17.10;99.90;;;;;;5073435;28;20197;-79
2022/05/28 08:44:19;;;;;;;4.70;2.97;;;17.10;99.90;;;;;;5073832;28;20528;-78
2022/05/28 08:46:56;;;;;;;5.32;3.58;;;17.10;99.90;;;;;;5066615;28;20193;-78
2022/05/28 08:49:32;;;;;;;21.27;11.13;;;17.00;99.90;;;;;;5072203;28;20221;-79
2022/05/28 08:52:09;;;;;;;7.78;4.50;;;17.00;99.90;;;;;;5073863;28;20204;-79
2022/05/28 08:54:41;;;;;;;9.32;5.35;;;17.00;99.90;;;;;;5073711;28;20193;-79
2022/05/28 08:57:16;;;;;;;9.43;5.68;;;17.00;99.90;;;;;;5073742;28;20231;-79
2022/05/28 08:59:50;;;;;;;7.82;3.30;;;17.00;99.90;;;;;;5073059;28;20192;-78
2022/05/28 09:02:28;;;;;;;7.45;2.85;;;17.00;99.90;;;;;;5073270;28;20189;-79
2022/05/28 09:05:03;;;;;;;4.70;2.80;;;17.00;99.90;;;;;;5073157;28;20196;-79
2022/05/28 09:07:33;;;;;;;6.72;2.55;;;17.00;99.90;;;;;;5072500;28;20707;-79
2022/05/28 09:10:05;;;;;;;4.72;2.97;;;16.90;99.90;;;;;;5072842;28;20227;-79
2022/05/28 09:12:44;;;;;;;5.10;2.55;;;16.90;99.90;;;;;;5073317;28;20727;-78
2022/05/28 09:15:15;;;;;;;5.53;2.67;;;16.90;99.90;;;;;;5065525;28;20187;-78
2022/05/28 09:17:48;;;;;;;6.07;2.95;;;16.90;99.90;;;;;;5071182;28;20229;-79
2022/05/28 09:20:24;;;;;;;8.18;4.07;;;16.90;99.90;;;;;;5069820;28;20189;-78
2022/05/28 09:22:55;;;;;;;6.55;4.50;;;16.90;99.90;;;;;;5072206;28;20278;-78
2022/05/28 09:25:32;;;;;;;10.13;5.82;;;16.90;99.90;;;;;;5072986;28;20189;-79
2022/05/28 09:28:09;;;;;;;7.18;4.32;;;16.90;99.90;;;;;;5073165;28;20751;-78
2022/05/28 09:30:48;;;;;;;5.55;3.17;;;16.90;99.90;;;;;;5073429;28;20188;-78
2022/05/28 09:33:32;;;;;;;4.65;2.42;;;16.80;99.90;;;;;;5072834;28;20209;-78
2022/05/28 09:36:11;;;;;;;4.80;2.78;;;16.90;99.90;;;;;;5073020;28;20629;-78
2022/05/28 09:38:53;;;;;;;3.75;2.58;;;16.80;99.90;;;;;;5073059;28;20180;-78
2022/05/28 09:41:33;;;;;;;4.57;2.28;;;16.80;99.90;;;;;;5072859;28;20315;-78
2022/05/28 09:44:14;;;;;;;4.43;2.60;;;16.80;99.90;;;;;;5072590;28;20652;-78
2022/05/28 09:46:45;;;;;;;4.35;2.50;;;16.80;99.90;;;;;;5072771;28;20629;-79
2022/05/28 09:49:19;;;;;;;3.88;2.50;;;16.70;99.90;;;;;;5072561;28;20215;-79
2022/05/28 09:52:00;;;;;;;3.45;2.47;;;16.70;99.90;;;;;;5072608;28;20710;-79
2022/05/28 09:54:33;;;;;;;2.95;2.20;;;16.60;99.90;;;;;;5065664;28;20554;-78
2022/05/28 09:57:09;;;;;;;5.18;2.40;;;16.60;99.90;;;;;;5072152;28;20200;-78
2022/05/28 09:59:52;;;;;;;3.58;2.42;;;16.50;99.90;;;;;;5072862;28;20192;-79
2022/05/28 10:02:26;;;;;;;3.38;2.30;;;16.40;99.90;;;;;;5072582;28;20276;-78
2022/05/28 10:05:00;;;;;;;3.95;2.67;;;16.40;99.90;;;;;;5073089;28;20245;-78
2022/05/28 10:07:37;;;;;;;4.78;2.78;;;16.40;99.90;;;;;;5064825;28;20272;-78
2022/05/28 10:10:18;;;;;;;4.38;2.70;;;16.30;99.90;;;;;;5072214;28;20197;-78
2022/05/28 10:12:49;;;;;;;5.13;2.60;;;16.30;99.90;;;;;;5073042;28;20278;-78
2022/05/28 10:15:23;;;;;;;5.97;2.55;;;16.20;99.90;;;;;;5076600;28;20189;-79
2022/05/28 10:17:58;;;;;;;3.47;2.65;;;16.20;99.90;;;;;;5076709;28;20232;-78
2022/05/28 10:20:29;;;;;;;5.85;2.78;;;16.10;99.90;;;;;;5076522;28;20193;-78
2022/05/28 10:23:08;;;;;;;3.20;2.60;;;16.20;99.90;;;;;;5075859;28;20281;-79
2022/05/28 10:25:41;;;;;;;5.07;2.70;;;16.20;99.90;;;;;;5076655;28;20192;-79
2022/05/28 10:28:13;;;;;;;3.42;2.20;;;16.10;99.90;;;;;;5076431;28;20276;-79
2022/05/28 10:30:46;;;;;;;4.15;2.20;;;16.10;99.90;;;;;;5076486;28;20568;-78
2022/05/28 10:33:19;;;;;;;3.58;2.30;;;16.10;99.90;;;;;;5076224;28;20212;-78
2022/05/28 10:35:50;;;;;;;3.92;2.17;;;16.10;99.90;;;;;;5076150;28;20196;-79
2022/05/28 10:38:29;;;;;;;4.50;2.80;;;16.10;99.90;;;;;;5076064;28;20644;-79
2022/05/28 10:41:03;;;;;;;5.65;2.70;;;16.00;99.90;;;;;;5074056;28;20189;-79
2022/05/28 10:43:36;;;;;;;4.70;3.33;;;16.00;99.90;;;;;;5075898;28;20228;-78
2022/05/28 10:46:14;;;;;;;3.83;2.95;;;15.90;99.90;;;;;;5076298;28;20193;-79
2022/05/28 10:49:02;;;;;;;4.03;2.67;;;15.90;99.90;;;;;;5068433;28;20264;-78
2022/05/28 10:51:39;;;;;;;4.25;2.38;;;15.90;99.90;;;;;;5074892;28;20243;-79
2022/05/28 10:54:26;;;;;;;2.70;2.03;;;15.80;99.90;;;;;;5076303;28;20209;-78
2022/05/28 10:57:01;;;;;;;3.30;2.17;;;15.80;99.90;;;;;;5075606;28;20272;-78
2022/05/28 10:59:52;;;;;;;4.50;2.10;;;15.80;99.90;;;;;;5075215;28;20184;-79
2022/05/28 11:02:55;;;;;;;3.95;1.80;;;15.70;99.90;;;;;;5072047;28;20250;-78
2022/05/28 11:05:42;;;;;;;2.67;1.88;;;15.70;99.90;;;;;;5075016;28;20555;-79
2022/05/28 11:08:22;;;;;;;2.35;1.73;;;15.70;99.90;;;;;;5071066;28;20587;-78
2022/05/28 11:11:12;;;;;;;2.88;1.73;;;15.70;99.90;;;;;;5075258;28;20191;-79
2022/05/28 11:14:07;;;;;;;2.88;2.10;;;15.50;99.90;;;;;;5075234;28;20925;-78
2022/05/28 11:17:05;;;;;;;3.13;1.95;;;15.50;99.90;;;;;;5074114;28;20189;-79
2022/05/28 11:19:49;;;;;;;3.70;2.20;;;15.60;99.90;;;;;;5069074;28;20280;-79
2022/05/28 11:22:40;;;;;;;3.83;2.20;;;15.50;99.90;;;;;;5074275;28;20224;-79
2022/05/28 11:25:16;;;;;;;3.42;2.47;;;15.40;99.90;;;;;;5074534;28;20239;-79
2022/05/28 11:27:58;;;;;;;5.75;2.88;;;15.40;99.90;;;;;;5074525;28;20196;-78
2022/05/28 11:30:33;;;;;;;4.60;2.63;;;15.30;99.90;;;;;;5072474;28;20185;-78
2022/05/28 11:33:10;;;;;;;4.50;2.78;;;15.30;99.90;;;;;;5074568;28;20215;-79
2022/05/28 11:35:45;;;;;;;4.53;2.85;;;15.30;99.90;;;;;;5074973;28;20218;-78
2022/05/28 11:38:22;;;;;;;4.60;2.90;;;15.20;99.90;;;;;;5074291;28;20196;-78
2022/05/28 11:41:03;;;;;;;5.80;3.03;;;15.20;99.90;;;;;;5074470;28;20599;-79
2022/05/28 11:43:40;;;;;;;5.00;3.17;;;15.20;99.90;;;;;;5072313;28;20220;-78
2022/05/28 11:46:24;;;;;;;5.47;3.20;;;15.10;99.90;;;;;;5074593;28;20267;-78
2022/05/28 11:51:56;;;;;;;3.38;2.50;;;15.10;99.90;;;;;;5074418;28;20595;-78
2022/05/28 11:54:30;;;;;;;4.32;2.80;;;15.00;99.90;;;;;;5071786;28;20212;-78
2022/05/28 11:57:06;;;;;;;6.68;3.00;;;15.00;99.90;;;;;;5073214;28;20652;-78
2022/05/28 11:59:40;;;;;;;4.60;2.80;;;15.00;99.90;;;;;;5073467;28;20192;-78
2022/05/28 12:02:14;;;;;;;4.07;2.63;;;15.00;99.90;;;;;;5074359;28;20692;-78
2022/05/28 12:04:46;;;;;;;4.68;2.88;;;14.90;99.90;;;;;;5074134;28;20644;-78
2022/05/28 12:07:30;;;;;;;4.30;2.97;;;14.80;99.90;;;;;;5074503;28;20197;-78
2022/05/28 12:10:01;;;;;;;4.40;3.22;;;14.70;99.90;;;;;;5073712;28;20193;-78
2022/05/28 12:12:34;;;;;;;4.60;2.63;;;14.60;99.90;;;;;;5073890;28;20193;-78
2022/05/28 12:15:24;;;;;;;5.80;2.92;;;14.60;99.90;;;;;;5073639;28;20212;-78
2022/05/28 12:18:07;;;;;;;5.10;3.35;;;14.40;99.90;;;;;;5072457;28;20233;-79
2022/05/28 12:20:50;;;;;;;5.60;3.33;;;14.50;99.90;;;;;;5074164;28;20250;-78
2022/05/28 12:23:32;;;;;;;4.15;2.45;;;14.40;99.90;;;;;;5073348;28;20299;-78
2022/05/28 12:26:05;;;;;;;4.45;2.67;;;14.30;99.90;;;;;;5072735;28;20204;-78
2022/05/28 12:28:48;;;;;;;3.65;2.45;;;14.30;99.90;;;;;;5073930;28;20193;-78
2022/05/28 12:31:31;;;;;;;3.35;2.33;;;14.30;99.90;;;;;;5073855;28;20280;-79
2022/05/28 12:34:03;;;;;;;3.92;2.28;;;14.30;99.90;;;;;;5072461;28;20209;-78
2022/05/28 12:36:43;;;;;;;3.65;2.30;;;14.30;99.90;;;;;;5072573;28;20254;-78
2022/05/28 12:39:33;;;;;;;3.50;2.28;;;14.40;99.90;;;;;;5073492;28;20184;-78
2022/05/28 12:42:04;;;;;;;4.35;2.38;;;14.40;99.90;;;;;;5073011;28;20239;-79
2022/05/28 12:44:36;;;;;;;3.58;2.28;;;14.30;99.90;;;;;;5073542;28;20181;-79
2022/05/28 12:47:09;;;;;;;4.00;2.60;;;14.30;99.90;;;;;;5073079;28;20197;-80
2022/05/28 12:49:51;;;;;;;4.63;2.30;;;14.30;99.90;;;;;;5074219;28;20189;-79
2022/05/28 12:52:37;;;;;;;6.57;2.70;;;14.30;99.90;;;;;;5074009;28;20226;-79
2022/05/28 12:55:31;;;;;;;2.88;2.40;;;14.30;99.90;;;;;;5073161;28;20703;-78
2022/05/28 12:58:08;;;;;;;3.45;2.55;;;14.20;99.90;;;;;;5072686;28;20291;-78
2022/05/28 13:00:54;;;;;;;4.05;2.75;;;14.20;99.90;;;;;;5073209;28;20184;-78
2022/05/28 13:03:29;;;;;;;3.65;2.70;;;14.10;99.90;;;;;;5072789;28;20281;-78
2022/05/28 13:06:06;;;;;;;4.85;2.63;;;14.10;99.90;;;;;;5073253;28;20189;-78
2022/05/28 13:08:43;;;;;;;4.55;2.50;;;14.10;99.90;;;;;;5071184;28;20243;-78
2022/05/28 13:11:28;;;;;;;5.45;3.00;;;14.00;99.90;;;;;;5071556;28;20185;-78
2022/05/28 13:14:37;;;;;;;4.00;2.75;;;14.10;99.90;;;;;;5071511;28;20274;-78
2022/05/28 13:17:32;;;;;;;5.18;3.28;;;14.10;99.90;;;;;;5072282;28;20200;-78
2022/05/28 13:20:26;;;;;;;4.28;2.80;;;14.10;99.90;;;;;;5067785;28;20235;-78
2022/05/28 13:23:19;;;;;;;4.50;3.00;;;14.10;99.90;;;;;;5066504;28;20236;-79
2022/05/28 13:26:21;;;;;;;4.82;2.95;;;14.00;99.90;;;;;;5072255;28;20201;-78
2022/05/28 13:29:15;;;;;;;4.03;2.75;;;14.00;99.90;;;;;;5051300;28;20197;-78